createdAt,value
2018-02-13T00:00:34.660Z,999.26
2018-02-13T00:01:34.668Z,999.28
2018-02-13T00:02:34.626Z,999.31
2018-02-13T00:03:34.604Z,999.31
2018-02-13T00:04:34.586Z,999.26
2018-02-13T00:05:34.568Z,999.29
2018-02-13T00:06:34.549Z,999.24
2018-02-13T00:07:34.531Z,999.26
2018-02-13T00:08:34.512Z,999.26
2018-02-13T00:09:34.494Z,999.23
2018-02-13T00:10:34.484Z,999.24
2018-02-13T00:11:34.457Z,999.22
2018-02-13T00:12:34.439Z,999.27
2018-02-13T00:13:34.429Z,999.22
2018-02-13T00:14:34.433Z,999.28
2018-02-13T00:15:34.395Z,999.24
2018-02-13T00:16:34.364Z,999.22
2018-02-13T00:17:34.360Z,999.21
2018-02-13T00:18:34.327Z,999.19
2018-02-13T00:19:34.308Z,999.19
2018-02-13T00:20:34.292Z,999.22
2018-02-13T00:21:34.323Z,999.24
2018-02-13T00:22:34.253Z,999.22
2018-02-13T00:23:34.234Z,999.22
2018-02-13T00:24:34.236Z,999.21
2018-02-13T00:25:34.196Z,999.18
2018-02-13T00:26:34.217Z,999.22
2018-02-13T00:27:34.160Z,999.20
2018-02-13T00:28:34.146Z,999.19
2018-02-13T00:29:34.133Z,999.17
2018-02-13T00:30:34.105Z,999.22
2018-02-13T00:31:34.086Z,999.16
2018-02-13T00:32:34.081Z,999.14
2018-02-13T00:33:34.050Z,999.15
2018-02-13T00:34:34.031Z,999.17
2018-02-13T00:35:34.012Z,999.12
2018-02-13T00:36:33.993Z,999.17
2018-02-13T00:37:33.976Z,999.15
2018-02-13T00:38:33.971Z,999.14
2018-02-13T00:39:33.937Z,999.21
2018-02-13T00:40:33.919Z,999.20
2018-02-13T00:41:33.901Z,999.17
2018-02-13T00:42:33.883Z,999.09
2018-02-13T00:43:33.879Z,999.15
2018-02-13T00:44:33.845Z,999.12
2018-02-13T00:45:33.844Z,999.11
2018-02-13T00:46:33.808Z,999.14
2018-02-13T00:47:33.810Z,999.14
2018-02-13T00:48:33.772Z,999.12
2018-02-13T00:49:33.970Z,999.12
2018-02-13T00:50:33.737Z,999.06
2018-02-13T00:51:33.718Z,999.08
2018-02-13T00:52:33.732Z,999.07
2018-02-13T00:53:33.680Z,999.05
2018-02-13T00:54:33.681Z,999.04
2018-02-13T00:55:33.643Z,999.03
2018-02-13T00:56:33.639Z,999.07
2018-02-13T00:58:33.605Z,999.03
2018-02-13T00:59:33.572Z,999.03
2018-02-13T01:00:33.593Z,999.02
2018-02-13T01:01:33.533Z,999.02
2018-02-13T01:02:33.621Z,999.05
2018-02-13T01:03:33.521Z,999.00
2018-02-13T01:04:33.476Z,999.02
2018-02-13T01:05:33.458Z,999.00
2018-02-13T01:06:33.448Z,999.06
2018-02-13T01:07:33.421Z,998.99
2018-02-13T01:08:33.404Z,999.01
2018-02-13T01:09:33.398Z,998.98
2018-02-13T01:10:33.366Z,998.97
2018-02-13T01:11:33.347Z,998.92
2018-02-13T01:12:33.329Z,998.92
2018-02-13T01:13:33.311Z,998.97
2018-02-13T01:14:33.293Z,998.89
2018-02-13T01:15:33.274Z,998.87
2018-02-13T01:16:33.256Z,998.87
2018-02-13T01:17:33.249Z,998.91
2018-02-13T01:18:33.256Z,998.91
2018-02-13T01:19:33.215Z,998.95
2018-02-13T01:20:33.182Z,998.90
2018-02-13T01:21:33.183Z,998.92
2018-02-13T01:22:33.146Z,998.90
2018-02-13T01:23:33.127Z,998.95
2018-02-13T01:24:33.121Z,998.92
2018-02-13T01:25:33.091Z,998.90
2018-02-13T01:26:33.073Z,998.89
2018-02-13T01:27:33.054Z,998.90
2018-02-13T01:28:33.055Z,998.89
2018-02-13T01:29:33.018Z,998.86
2018-02-13T01:30:33.027Z,998.86
2018-02-13T01:31:32.980Z,998.89
2018-02-13T01:32:32.961Z,998.90
2018-02-13T01:33:32.952Z,998.84
2018-02-13T01:34:32.925Z,998.83
2018-02-13T01:35:32.915Z,998.79
2018-02-13T01:36:32.889Z,998.82
2018-02-13T01:37:32.870Z,998.82
2018-02-13T01:38:32.852Z,998.82
2018-02-13T01:39:32.833Z,998.83
2018-02-13T01:40:32.826Z,998.82
2018-02-13T01:41:32.797Z,998.80
2018-02-13T01:42:32.780Z,998.77
2018-02-13T01:43:32.759Z,998.78
2018-02-13T01:44:32.740Z,998.75
2018-02-13T01:45:32.723Z,998.79
2018-02-13T01:46:32.705Z,998.75
2018-02-13T01:47:32.685Z,998.78
2018-02-13T01:48:32.668Z,998.75
2018-02-13T01:49:32.666Z,998.74
2018-02-13T01:50:32.631Z,998.74
2018-02-13T01:51:32.635Z,998.71
2018-02-13T01:52:32.599Z,998.75
2018-02-13T01:53:32.792Z,998.72
2018-02-13T01:54:32.571Z,998.76
2018-02-13T01:55:32.539Z,998.67
2018-02-13T01:56:32.527Z,998.72
2018-02-13T01:57:32.552Z,998.69
2018-02-13T01:58:32.482Z,998.68
2018-02-13T01:59:32.473Z,998.63
2018-02-13T02:00:32.470Z,998.66
2018-02-13T02:01:32.444Z,998.65
2018-02-13T02:02:32.409Z,998.63
2018-02-13T02:03:32.406Z,998.63
2018-02-13T02:04:32.371Z,998.65
2018-02-13T02:05:32.358Z,998.58
2018-02-13T02:06:32.336Z,998.59
2018-02-13T02:07:32.315Z,998.60
2018-02-13T02:08:32.297Z,998.54
2018-02-13T02:09:32.278Z,998.59
2018-02-13T02:10:32.263Z,998.53
2018-02-13T02:11:32.241Z,998.56
2018-02-13T02:12:32.222Z,998.55
2018-02-13T02:13:32.204Z,998.57
2018-02-13T02:14:32.186Z,998.56
2018-02-13T02:15:32.167Z,998.54
2018-02-13T02:16:32.149Z,998.55
2018-02-13T02:17:32.133Z,998.52
2018-02-13T02:18:32.112Z,998.53
2018-02-13T02:19:32.092Z,998.53
2018-02-13T02:20:32.075Z,998.52
2018-02-13T02:21:32.057Z,998.50
2018-02-13T02:22:32.054Z,998.50
2018-02-13T02:23:32.018Z,998.47
2018-02-13T02:24:32.017Z,998.47
2018-02-13T02:25:31.984Z,998.49
2018-02-13T02:26:32.019Z,998.47
2018-02-13T02:27:31.945Z,998.45
2018-02-13T02:28:31.928Z,998.44
2018-02-13T02:29:31.935Z,998.45
2018-02-13T02:30:31.890Z,998.45
2018-02-13T02:31:31.873Z,998.42
2018-02-13T02:32:31.916Z,998.39
2018-02-13T02:33:31.860Z,998.38
2018-02-13T02:34:31.819Z,998.39
2018-02-13T02:35:31.853Z,998.42
2018-02-13T02:36:31.786Z,998.41
2018-02-13T02:37:31.768Z,998.40
2018-02-13T02:38:31.777Z,998.37
2018-02-13T02:39:31.724Z,998.37
2018-02-13T02:40:31.709Z,998.36
2018-02-13T02:41:31.703Z,998.33
2018-02-13T02:42:31.669Z,998.34
2018-02-13T02:43:31.651Z,998.33
2018-02-13T02:44:31.633Z,998.36
2018-02-13T02:45:31.613Z,998.32
2018-02-13T02:46:31.595Z,998.34
2018-02-13T02:47:31.579Z,998.28
2018-02-13T02:48:31.559Z,998.26
2018-02-13T02:49:31.545Z,998.23
2018-02-13T02:50:31.523Z,998.23
2018-02-13T02:51:31.505Z,998.26
2018-02-13T02:52:31.486Z,998.27
2018-02-13T02:53:31.467Z,998.23
2018-02-13T02:54:31.466Z,998.19
2018-02-13T02:55:31.447Z,998.20
2018-02-13T02:56:31.431Z,998.20
2018-02-13T02:57:31.393Z,998.23
2018-02-13T02:58:31.419Z,998.19
2018-02-13T02:59:31.359Z,998.21
2018-02-13T03:00:31.339Z,998.20
2018-02-13T03:01:31.348Z,998.19
2018-02-13T03:02:31.302Z,998.17
2018-02-13T03:03:31.283Z,998.13
2018-02-13T03:04:31.313Z,998.14
2018-02-13T03:05:31.268Z,998.14
2018-02-13T03:06:31.229Z,998.10
2018-02-13T03:07:31.435Z,998.11
2018-02-13T03:08:31.195Z,998.05
2018-02-13T03:09:31.176Z,998.08
2018-02-13T03:10:31.184Z,998.06
2018-02-13T03:11:31.134Z,998.05
2018-02-13T03:12:31.116Z,998.01
2018-02-13T03:13:31.115Z,998.04
2018-02-13T03:14:31.084Z,997.98
2018-02-13T03:15:31.060Z,997.97
2018-02-13T03:16:31.041Z,997.97
2018-02-13T03:17:31.025Z,997.96
2018-02-13T03:18:31.006Z,998.00
2018-02-13T03:19:30.986Z,997.92
2018-02-13T03:20:30.968Z,997.97
2018-02-13T03:21:30.952Z,997.96
2018-02-13T03:22:30.938Z,997.94
2018-02-13T03:23:30.913Z,997.90
2018-02-13T03:24:30.894Z,997.92
2018-02-13T03:25:30.875Z,997.92
2018-02-13T03:26:30.882Z,997.91
2018-02-13T03:27:30.841Z,997.89
2018-02-13T03:28:30.846Z,997.92
2018-02-13T03:29:30.808Z,997.89
2018-02-13T03:30:30.784Z,997.90
2018-02-13T03:31:30.775Z,997.91
2018-02-13T03:32:30.745Z,997.90
2018-02-13T03:33:30.728Z,997.89
2018-02-13T03:34:30.710Z,997.86
2018-02-13T03:35:30.691Z,997.86
2018-02-13T03:36:30.683Z,997.84
2018-02-13T03:37:30.688Z,997.84
2018-02-13T03:38:30.654Z,997.83
2018-02-13T03:39:30.618Z,997.84
2018-02-13T03:40:30.614Z,997.79
2018-02-13T03:41:30.580Z,997.82
2018-02-13T03:42:30.561Z,997.78
2018-02-13T03:43:30.543Z,997.76
2018-02-13T03:44:30.524Z,997.78
2018-02-13T03:45:30.504Z,997.76
2018-02-13T03:46:30.486Z,997.76
2018-02-13T03:47:30.468Z,997.76
2018-02-13T03:48:30.449Z,997.74
2018-02-13T03:49:30.430Z,997.77
2018-02-13T03:50:30.412Z,997.69
2018-02-13T03:51:30.392Z,997.68
2018-02-13T03:52:30.378Z,997.68
2018-02-13T03:53:30.356Z,997.69
2018-02-13T03:54:30.337Z,997.64
2018-02-13T03:55:30.319Z,997.63
2018-02-13T03:56:30.299Z,997.67
2018-02-13T03:57:30.280Z,997.68
2018-02-13T03:58:30.278Z,997.68
2018-02-13T03:59:30.243Z,997.65
2018-02-13T04:00:30.326Z,997.62
2018-02-13T04:01:30.211Z,997.64
2018-02-13T04:02:30.406Z,997.60
2018-02-13T04:03:30.176Z,997.63
2018-02-13T04:04:30.150Z,997.60
2018-02-13T04:05:30.173Z,997.59
2018-02-13T04:06:30.112Z,997.55
2018-02-13T04:07:30.092Z,997.57
2018-02-13T04:08:30.094Z,997.56
2018-02-13T04:09:30.055Z,997.56
2018-02-13T04:10:30.052Z,997.60
2018-02-13T04:12:30.016Z,997.55
2018-02-13T04:13:29.979Z,997.55
2018-02-13T04:14:30.022Z,997.51
2018-02-13T04:15:29.943Z,997.49
2018-02-13T04:16:29.924Z,997.51
2018-02-13T04:17:29.933Z,997.47
2018-02-13T04:18:29.885Z,997.46
2018-02-13T04:19:29.867Z,997.46
2018-02-13T04:20:29.878Z,997.48
2018-02-13T04:21:29.830Z,997.50
2018-02-13T04:22:29.810Z,997.51
2018-02-13T04:23:29.790Z,997.49
2018-02-13T04:24:29.771Z,997.53
2018-02-13T04:25:29.754Z,997.52
2018-02-13T04:26:29.734Z,997.49
2018-02-13T04:27:29.716Z,997.46
2018-02-13T04:28:29.696Z,997.50
2018-02-13T04:29:29.679Z,997.49
2018-02-13T04:30:29.660Z,997.46
2018-02-13T04:31:29.641Z,997.48
2018-02-13T04:32:29.621Z,997.51
2018-02-13T04:33:29.629Z,997.51
2018-02-13T04:34:29.588Z,997.49
2018-02-13T04:35:29.595Z,997.49
2018-02-13T04:36:29.553Z,997.47
2018-02-13T04:37:29.530Z,997.46
2018-02-13T04:38:29.520Z,997.49
2018-02-13T04:39:29.491Z,997.47
2018-02-13T04:40:29.473Z,997.46
2018-02-13T04:41:29.453Z,997.47
2018-02-13T04:42:29.435Z,997.45
2018-02-13T04:43:29.418Z,997.44
2018-02-13T04:44:29.398Z,997.43
2018-02-13T04:45:29.396Z,997.41
2018-02-13T04:46:29.361Z,997.42
2018-02-13T04:47:29.361Z,997.42
2018-02-13T04:48:29.326Z,997.43
2018-02-13T04:49:29.304Z,997.39
2018-02-13T04:50:29.286Z,997.41
2018-02-13T04:51:29.267Z,997.43
2018-02-13T04:52:29.247Z,997.39
2018-02-13T04:53:29.228Z,997.34
2018-02-13T04:54:29.219Z,997.37
2018-02-13T04:55:29.191Z,997.34
2018-02-13T04:56:29.175Z,997.36
2018-02-13T04:57:29.158Z,997.34
2018-02-13T04:58:29.136Z,997.30
2018-02-13T04:59:29.118Z,997.29
2018-02-13T05:00:29.102Z,997.33
2018-02-13T05:01:29.079Z,997.29
2018-02-13T05:02:29.060Z,997.31
2018-02-13T05:03:29.040Z,997.29
2018-02-13T05:04:29.024Z,997.28
2018-02-13T05:05:29.002Z,997.28
2018-02-13T05:06:29.000Z,997.30
2018-02-13T05:07:28.990Z,997.26
2018-02-13T05:08:28.949Z,997.29
2018-02-13T05:09:28.957Z,997.28
2018-02-13T05:10:28.915Z,997.28
2018-02-13T05:11:28.890Z,997.24
2018-02-13T05:12:28.883Z,997.29
2018-02-13T05:13:28.853Z,997.29
2018-02-13T05:14:28.834Z,997.25
2018-02-13T05:15:28.835Z,997.26
2018-02-13T05:16:28.805Z,997.25
2018-02-13T05:17:28.806Z,997.25
2018-02-13T05:18:28.859Z,997.23
2018-02-13T05:19:28.754Z,997.19
2018-02-13T05:20:28.734Z,997.20
2018-02-13T05:21:28.734Z,997.18
2018-02-13T05:22:28.685Z,997.18
2018-02-13T05:23:28.881Z,997.14
2018-02-13T05:24:28.665Z,997.11
2018-02-13T05:25:28.626Z,997.12
2018-02-13T05:26:28.647Z,997.11
2018-02-13T05:27:28.591Z,997.08
2018-02-13T05:28:28.568Z,997.08
2018-02-13T05:29:28.572Z,997.07
2018-02-13T05:30:28.533Z,997.04
2018-02-13T05:31:28.513Z,997.06
2018-02-13T05:32:28.507Z,997.06
2018-02-13T05:33:28.475Z,997.07
2018-02-13T05:34:28.455Z,997.12
2018-02-13T05:35:28.436Z,997.05
2018-02-13T05:36:28.417Z,997.06
2018-02-13T05:37:28.400Z,997.06
2018-02-13T05:38:28.380Z,997.05
2018-02-13T05:39:28.361Z,997.02
2018-02-13T05:40:28.343Z,996.99
2018-02-13T05:41:28.325Z,997.02
2018-02-13T05:42:28.307Z,997.02
2018-02-13T05:43:28.286Z,997.01
2018-02-13T05:44:28.312Z,997.04
2018-02-13T05:45:28.267Z,997.03
2018-02-13T05:46:28.295Z,997.02
2018-02-13T05:47:28.240Z,997.06
2018-02-13T05:48:28.194Z,997.01
2018-02-13T05:49:28.413Z,997.04
2018-02-13T05:50:28.164Z,997.06
2018-02-13T05:51:28.134Z,997.04
2018-02-13T05:52:28.150Z,997.03
2018-02-13T05:53:28.146Z,997.08
2018-02-13T05:54:28.088Z,997.04
2018-02-13T05:55:28.070Z,997.02
2018-02-13T05:56:28.067Z,997.06
2018-02-13T05:57:28.060Z,997.03
2018-02-13T05:58:28.007Z,997.04
2018-02-13T05:59:28.021Z,997.07
2018-02-13T06:00:27.970Z,997.05
2018-02-13T06:01:27.946Z,997.01
2018-02-13T06:02:27.960Z,997.03
2018-02-13T06:03:27.911Z,997.02
2018-02-13T06:04:27.888Z,997.03
2018-02-13T06:05:27.907Z,996.98
2018-02-13T06:06:27.852Z,996.98
2018-02-13T06:07:27.832Z,996.98
2018-02-13T06:08:27.813Z,996.94
2018-02-13T06:09:27.796Z,996.96
2018-02-13T06:10:27.777Z,996.95
2018-02-13T06:11:27.759Z,996.98
2018-02-13T06:12:27.740Z,996.96
2018-02-13T06:13:27.721Z,996.93
2018-02-13T06:14:27.700Z,996.92
2018-02-13T06:15:27.681Z,996.93
2018-02-13T06:16:27.662Z,996.97
2018-02-13T06:17:27.655Z,996.92
2018-02-13T06:18:27.650Z,996.95
2018-02-13T06:19:27.605Z,996.95
2018-02-13T06:20:27.620Z,996.94
2018-02-13T06:21:27.570Z,996.93
2018-02-13T06:22:27.604Z,996.95
2018-02-13T06:23:27.531Z,996.92
2018-02-13T06:24:27.511Z,996.91
2018-02-13T06:25:27.494Z,996.91
2018-02-13T06:26:27.490Z,996.91
2018-02-13T06:27:27.459Z,996.92
2018-02-13T06:28:27.436Z,996.89
2018-02-13T06:29:27.418Z,996.89
2018-02-13T06:30:27.398Z,996.91
2018-02-13T06:31:27.379Z,996.90
2018-02-13T06:32:27.361Z,996.88
2018-02-13T06:33:27.342Z,996.88
2018-02-13T06:34:27.364Z,996.93
2018-02-13T06:35:27.318Z,996.94
2018-02-13T06:36:27.285Z,996.91
2018-02-13T06:37:27.283Z,996.90
2018-02-13T06:38:27.250Z,996.93
2018-02-13T06:39:27.274Z,996.91
2018-02-13T06:40:27.210Z,996.95
2018-02-13T06:41:27.191Z,996.93
2018-02-13T06:42:27.200Z,996.92
2018-02-13T06:43:27.160Z,996.94
2018-02-13T06:44:27.134Z,996.91
2018-02-13T06:45:27.115Z,996.91
2018-02-13T06:46:27.098Z,996.94
2018-02-13T06:47:27.078Z,996.97
2018-02-13T06:48:27.061Z,996.96
2018-02-13T06:49:27.040Z,996.95
2018-02-13T06:50:27.021Z,996.95
2018-02-13T06:51:27.031Z,996.98
2018-02-13T06:52:26.983Z,996.95
2018-02-13T06:53:26.974Z,996.97
2018-02-13T06:54:26.976Z,996.95
2018-02-13T06:55:26.925Z,996.94
2018-02-13T06:56:26.907Z,996.92
2018-02-13T06:57:26.891Z,996.94
2018-02-13T06:58:26.870Z,996.93
2018-02-13T06:59:26.851Z,996.92
2018-02-13T07:00:26.831Z,996.93
2018-02-13T07:01:26.815Z,996.90
2018-02-13T07:02:26.795Z,996.90
2018-02-13T07:03:26.784Z,996.88
2018-02-13T07:04:26.757Z,996.85
2018-02-13T07:05:26.740Z,996.86
2018-02-13T07:06:26.718Z,996.86
2018-02-13T07:07:26.699Z,996.86
2018-02-13T07:08:26.685Z,996.84
2018-02-13T07:09:26.662Z,996.83
2018-02-13T07:10:26.643Z,996.85
2018-02-13T07:11:26.675Z,996.85
2018-02-13T07:12:26.605Z,996.88
2018-02-13T07:13:26.586Z,996.84
2018-02-13T07:14:26.632Z,996.83
2018-02-13T07:15:26.550Z,996.85
2018-02-13T07:16:26.535Z,996.87
2018-02-13T07:17:26.595Z,996.83
2018-02-13T07:18:26.494Z,996.90
2018-02-13T07:19:26.474Z,996.88
2018-02-13T07:20:26.548Z,996.86
2018-02-13T07:21:26.437Z,996.88
2018-02-13T07:22:26.418Z,996.86
2018-02-13T07:23:26.441Z,996.92
2018-02-13T07:24:26.379Z,996.92
2018-02-13T07:25:26.360Z,996.93
2018-02-13T07:26:26.544Z,996.93
2018-02-13T07:27:26.321Z,996.90
2018-02-13T07:28:26.321Z,996.95
2018-02-13T07:29:26.489Z,996.91
2018-02-13T07:30:26.265Z,996.98
2018-02-13T07:31:26.250Z,996.95
2018-02-13T07:32:26.324Z,996.94
2018-02-13T07:33:26.209Z,996.96
2018-02-13T07:34:26.190Z,996.95
2018-02-13T07:35:26.191Z,996.90
2018-02-13T07:36:26.153Z,996.94
2018-02-13T07:37:26.138Z,996.94
2018-02-13T07:38:26.116Z,996.92
2018-02-13T07:39:26.095Z,996.95
2018-02-13T07:40:26.077Z,996.94
2018-02-13T07:41:26.060Z,996.94
2018-02-13T07:42:26.044Z,996.96
2018-02-13T07:43:26.022Z,996.90
2018-02-13T07:44:26.004Z,996.93
2018-02-13T07:45:25.987Z,996.89
2018-02-13T07:46:25.966Z,996.88
2018-02-13T07:47:25.953Z,996.89
2018-02-13T07:48:25.930Z,996.87
2018-02-13T07:49:25.911Z,996.95
2018-02-13T07:50:25.892Z,996.93
2018-02-13T07:51:25.873Z,996.94
2018-02-13T07:52:25.950Z,996.92
2018-02-13T07:53:25.839Z,996.84
2018-02-13T07:54:25.820Z,996.87
2018-02-13T07:55:25.805Z,996.87
2018-02-13T07:56:25.784Z,996.87
2018-02-13T07:57:25.765Z,996.87
2018-02-13T07:58:25.848Z,996.90
2018-02-13T07:59:25.730Z,996.82
2018-02-13T08:00:25.712Z,996.78
2018-02-13T08:01:25.944Z,996.79
2018-02-13T08:02:25.678Z,996.78
2018-02-13T08:03:25.669Z,996.82
2018-02-13T08:04:25.750Z,996.82
2018-02-13T08:05:25.730Z,996.77
2018-02-13T08:06:25.614Z,996.76
2018-02-13T08:07:25.801Z,996.76
2018-02-13T08:08:25.586Z,996.77
2018-02-13T08:09:25.578Z,996.76
2018-02-13T08:10:25.569Z,996.77
2018-02-13T08:11:25.541Z,996.77
2018-02-13T08:12:25.528Z,996.78
2018-02-13T08:13:25.524Z,996.77
2018-02-13T08:14:25.503Z,996.74
2018-02-13T08:15:25.492Z,996.77
2018-02-13T08:16:25.475Z,996.73
2018-02-13T08:17:25.465Z,996.69
2018-02-13T08:18:25.503Z,996.65
2018-02-13T08:19:25.436Z,996.64
2018-02-13T08:20:25.449Z,996.67
2018-02-13T08:21:25.658Z,996.65
2018-02-13T08:22:25.400Z,996.63
2018-02-13T08:23:25.387Z,996.69
2018-02-13T08:24:25.416Z,996.64
2018-02-13T08:25:25.362Z,996.61
2018-02-13T08:26:25.351Z,996.63
2018-02-13T08:27:25.387Z,996.58
2018-02-13T08:28:25.329Z,996.56
2018-02-13T08:29:25.321Z,996.56
2018-02-13T08:30:25.304Z,996.53
2018-02-13T08:31:25.324Z,996.57
2018-02-13T08:32:25.277Z,996.57
2018-02-13T08:33:25.267Z,996.53
2018-02-13T08:34:25.254Z,996.56
2018-02-13T08:35:25.240Z,996.49
2018-02-13T08:36:25.229Z,996.49
2018-02-13T08:37:25.217Z,996.49
2018-02-13T08:38:25.408Z,996.48
2018-02-13T08:39:25.192Z,996.52
2018-02-13T08:40:25.188Z,996.50
2018-02-13T08:41:25.373Z,996.48
2018-02-13T08:42:25.159Z,996.43
2018-02-13T08:43:25.149Z,996.45
2018-02-13T08:44:25.167Z,996.45
2018-02-13T08:45:25.123Z,996.44
2018-02-13T08:46:25.111Z,996.47
2018-02-13T08:47:25.104Z,996.41
2018-02-13T08:48:25.085Z,996.44
2018-02-13T08:49:25.072Z,996.37
2018-02-13T08:50:25.061Z,996.39
2018-02-13T08:51:25.046Z,996.44
2018-02-13T08:52:25.036Z,996.43
2018-02-13T08:53:25.020Z,996.42
2018-02-13T08:54:25.010Z,996.36
2018-02-13T08:55:24.994Z,996.36
2018-02-13T08:56:25.028Z,996.34
2018-02-13T08:57:24.966Z,996.38
2018-02-13T08:58:24.952Z,996.34
2018-02-13T08:59:24.952Z,996.34
2018-02-13T09:00:24.946Z,996.36
2018-02-13T09:01:24.909Z,996.31
2018-02-13T09:02:24.897Z,996.33
2018-02-13T09:03:24.882Z,996.30
2018-02-13T09:04:24.865Z,996.31
2018-02-13T09:05:24.853Z,996.32
2018-02-13T09:06:24.840Z,996.25
2018-02-13T09:07:24.822Z,996.28
2018-02-13T09:08:24.809Z,996.33
2018-02-13T09:09:24.795Z,996.32
2018-02-13T09:10:24.878Z,996.34
2018-02-13T09:11:24.768Z,996.28
2018-02-13T09:12:24.758Z,996.30
2018-02-13T09:13:24.946Z,996.30
2018-02-13T09:14:24.732Z,996.34
2018-02-13T09:15:24.719Z,996.32
2018-02-13T09:16:24.743Z,996.28
2018-02-13T09:17:24.699Z,996.29
2018-02-13T09:18:24.688Z,996.30
2018-02-13T09:19:24.678Z,996.29
2018-02-13T09:20:24.674Z,996.23
2018-02-13T09:21:24.661Z,996.29
2018-02-13T09:22:24.656Z,996.25
2018-02-13T09:23:24.644Z,996.28
2018-02-13T09:24:24.685Z,996.24
2018-02-13T09:25:24.637Z,996.29
2018-02-13T09:26:24.633Z,996.25
2018-02-13T09:27:24.662Z,996.30
2018-02-13T09:28:24.603Z,996.27
2018-02-13T09:29:24.595Z,996.29
2018-02-13T09:30:24.616Z,996.25
2018-02-13T09:31:24.586Z,996.25
2018-02-13T09:32:24.574Z,996.21
2018-02-13T09:33:24.568Z,996.23
2018-02-13T09:34:24.562Z,996.18
2018-02-13T09:35:24.554Z,996.15
2018-02-13T09:36:24.550Z,996.14
2018-02-13T09:37:24.542Z,996.19
2018-02-13T09:38:24.609Z,996.16
2018-02-13T09:39:24.529Z,996.21
2018-02-13T09:40:24.525Z,996.23
2018-02-13T09:41:24.556Z,996.28
2018-02-13T09:42:24.514Z,996.18
2018-02-13T09:43:24.505Z,996.20
2018-02-13T09:44:24.507Z,996.15
2018-02-13T09:45:24.494Z,996.15
2018-02-13T09:46:24.492Z,996.21
2018-02-13T09:47:24.485Z,996.14
2018-02-13T09:48:24.511Z,996.13
2018-02-13T09:49:24.559Z,996.19
2018-02-13T09:50:24.470Z,996.12
2018-02-13T09:51:24.463Z,996.08
2018-02-13T09:52:24.664Z,996.07
2018-02-13T09:53:24.457Z,996.07
2018-02-13T09:54:24.455Z,996.10
2018-02-13T09:55:24.444Z,996.14
2018-02-13T09:56:24.472Z,996.12
2018-02-13T09:57:24.436Z,996.11
2018-02-13T09:58:24.432Z,996.13
2018-02-13T09:59:24.429Z,996.09
2018-02-13T10:00:24.429Z,996.06
2018-02-13T10:01:24.626Z,996.13
2018-02-13T10:02:24.420Z,996.12
2018-02-13T10:03:24.409Z,996.20
2018-02-13T10:04:24.456Z,996.23
2018-02-13T10:05:24.403Z,996.22
2018-02-13T10:06:24.421Z,996.19
2018-02-13T10:07:24.394Z,996.21
2018-02-13T10:08:24.397Z,996.23
2018-02-13T10:09:24.385Z,996.22
2018-02-13T10:10:24.383Z,996.24
2018-02-13T10:11:24.377Z,996.24
2018-02-13T10:12:24.371Z,996.22
2018-02-13T10:13:24.368Z,996.25
2018-02-13T10:14:24.364Z,996.17
2018-02-13T10:15:24.562Z,996.18
2018-02-13T10:16:24.454Z,996.11
2018-02-13T10:17:24.351Z,996.09
2018-02-13T10:18:24.346Z,996.10
2018-02-13T10:19:24.340Z,996.07
2018-02-13T10:20:24.335Z,996.02
2018-02-13T10:21:24.331Z,996.06
2018-02-13T10:22:24.329Z,996.10
2018-02-13T10:23:24.322Z,996.12
2018-02-13T10:24:24.321Z,996.09
2018-02-13T10:25:24.313Z,996.10
2018-02-13T10:26:24.361Z,996.25
2018-02-13T10:27:24.306Z,996.10
2018-02-13T10:28:24.298Z,996.14
2018-02-13T10:29:24.318Z,996.06
2018-02-13T10:30:24.290Z,996.12
2018-02-13T10:31:24.288Z,996.09
2018-02-13T10:32:24.282Z,996.10
2018-02-13T10:33:24.277Z,996.10
2018-02-13T10:34:24.278Z,996.08
2018-02-13T10:35:24.269Z,995.99
2018-02-13T10:36:24.275Z,995.99
2018-02-13T10:38:24.257Z,996.02
2018-02-13T10:39:24.253Z,995.99
2018-02-13T10:40:24.299Z,996.00
2018-02-13T10:41:24.248Z,995.97
2018-02-13T10:42:24.239Z,995.87
2018-02-13T10:43:24.233Z,995.85
2018-02-13T10:44:24.232Z,995.87
2018-02-13T10:45:24.226Z,995.83
2018-02-13T10:46:24.222Z,995.85
2018-02-13T10:47:24.216Z,995.80
2018-02-13T10:48:24.470Z,995.86
2018-02-13T10:49:24.206Z,995.93
2018-02-13T10:50:24.201Z,995.90
2018-02-13T10:51:24.252Z,995.81
2018-02-13T10:52:24.193Z,995.92
2018-02-13T10:53:24.190Z,995.93
2018-02-13T10:54:24.234Z,995.79
2018-02-13T10:55:24.180Z,995.88
2018-02-13T10:56:24.173Z,995.86
2018-02-13T10:57:24.169Z,995.82
2018-02-13T10:58:24.249Z,995.81
2018-02-13T10:59:24.189Z,995.83
2018-02-13T11:00:24.153Z,995.79
2018-02-13T11:01:24.202Z,995.79
2018-02-13T11:02:24.148Z,995.80
2018-02-13T11:03:24.140Z,995.70
2018-02-13T11:04:24.138Z,995.75
2018-02-13T11:05:24.232Z,995.70
2018-02-13T11:06:24.130Z,995.71
2018-02-13T11:07:24.128Z,995.72
2018-02-13T11:08:24.118Z,995.61
2018-02-13T11:09:24.317Z,995.71
2018-02-13T11:10:24.111Z,995.70
2018-02-13T11:11:24.105Z,995.70
2018-02-13T11:12:24.306Z,995.67
2018-02-13T11:13:24.101Z,995.63
2018-02-13T11:14:24.092Z,995.61
2018-02-13T11:15:24.113Z,995.66
2018-02-13T11:16:24.084Z,995.60
2018-02-13T11:17:24.079Z,995.64
2018-02-13T11:18:24.075Z,995.57
2018-02-13T11:19:24.074Z,995.60
2018-02-13T11:20:24.069Z,995.58
2018-02-13T11:21:24.061Z,995.48
2018-02-13T11:22:24.057Z,995.48
2018-02-13T11:23:24.119Z,995.43
2018-02-13T11:24:24.052Z,995.50
2018-02-13T11:25:24.042Z,995.57
2018-02-13T11:26:24.052Z,995.58
2018-02-13T11:27:24.032Z,995.51
2018-02-13T11:28:24.028Z,995.56
2018-02-13T11:29:24.022Z,995.47
2018-02-13T11:30:24.017Z,995.46
2018-02-13T11:31:24.009Z,995.54
2018-02-13T11:32:24.012Z,995.46
2018-02-13T11:33:23.998Z,995.46
2018-02-13T11:35:23.984Z,995.57
2018-02-13T11:36:23.978Z,995.38
2018-02-13T11:37:24.030Z,995.42
2018-02-13T11:38:23.966Z,995.45
2018-02-13T11:39:23.958Z,995.42
2018-02-13T11:40:23.955Z,995.46
2018-02-13T11:41:23.944Z,995.41
2018-02-13T11:42:23.941Z,995.47
2018-02-13T11:43:23.930Z,995.38
2018-02-13T11:44:23.932Z,995.41
2018-02-13T11:45:24.157Z,995.38
2018-02-13T11:46:23.909Z,995.33
2018-02-13T11:47:23.900Z,995.44
2018-02-13T11:48:23.983Z,995.37
2018-02-13T11:49:23.890Z,995.43
2018-02-13T11:50:23.879Z,995.44
2018-02-13T11:51:23.911Z,995.40
2018-02-13T11:52:23.870Z,995.38
2018-02-13T11:53:23.858Z,995.39
2018-02-13T11:54:23.850Z,995.36
2018-02-13T11:56:23.837Z,995.40
2018-02-13T11:57:23.828Z,995.30
2018-02-13T11:58:23.866Z,995.34
2018-02-13T11:59:23.811Z,995.28
2018-02-13T12:00:23.804Z,995.25
2018-02-13T12:01:23.797Z,995.30
2018-02-13T12:02:23.790Z,995.30
2018-02-13T12:03:23.784Z,995.32
2018-02-13T12:04:23.808Z,995.25
2018-02-13T12:05:23.772Z,995.21
2018-02-13T12:06:23.761Z,995.27
2018-02-13T12:07:23.763Z,995.19
2018-02-13T12:08:23.748Z,995.20
2018-02-13T12:09:23.946Z,995.19
2018-02-13T12:10:23.734Z,995.10
2018-02-13T12:11:23.732Z,995.13
2018-02-13T12:12:23.770Z,995.11
2018-02-13T12:13:23.716Z,995.07
2018-02-13T12:14:23.708Z,995.11
2018-02-13T12:15:23.717Z,995.03
2018-02-13T12:16:23.697Z,994.99
2018-02-13T12:17:23.702Z,995.01
2018-02-13T12:18:23.686Z,994.99
2018-02-13T12:19:23.678Z,994.93
2018-02-13T12:20:23.753Z,994.88
2018-02-13T12:21:23.665Z,994.84
2018-02-13T12:22:23.663Z,994.88
2018-02-13T12:23:23.698Z,994.85
2018-02-13T12:24:23.646Z,994.90
2018-02-13T12:25:23.640Z,994.85
2018-02-13T12:26:23.633Z,994.81
2018-02-13T12:27:23.639Z,994.75
2018-02-13T12:28:23.622Z,994.79
2018-02-13T12:29:23.615Z,994.81
2018-02-13T12:30:23.606Z,994.82
2018-02-13T12:31:23.604Z,994.77
2018-02-13T12:32:23.595Z,994.86
2018-02-13T12:33:23.587Z,994.78